createdAt,value
2018-06-21T00:00:09.663Z,55.54
2018-06-21T00:01:14.543Z,55.53
2018-06-21T00:02:19.187Z,55.25
2018-06-21T00:03:23.386Z,55.18
2018-06-21T00:04:27.741Z,55.81
2018-06-21T00:05:32.228Z,55.75
2018-06-21T00:06:36.462Z,55.71
2018-06-21T00:07:40.766Z,55.66
2018-06-21T00:08:44.978Z,56.16
2018-06-21T00:09:49.400Z,56.07
2018-06-21T00:10:53.683Z,55.47
2018-06-21T00:11:58.052Z,56.21
2018-06-21T00:13:02.324Z,55.75
2018-06-21T00:14:06.555Z,56.01
2018-06-21T00:15:10.784Z,56.29
2018-06-21T00:16:15.197Z,56.11
2018-06-21T00:17:19.387Z,56.44
2018-06-21T00:18:23.810Z,56.02
2018-06-21T00:19:28.271Z,56.49
2018-06-21T00:20:32.784Z,56.28
2018-06-21T00:22:40.251Z,56.25
2018-06-21T00:23:44.516Z,56.52
2018-06-21T00:24:48.710Z,56.45
2018-06-21T00:25:53.091Z,56.75
2018-06-21T00:26:57.837Z,57.29
2018-06-21T00:28:02.212Z,56.63
2018-06-21T00:29:06.621Z,56.54
2018-06-21T00:30:11.159Z,56.55
2018-06-21T00:31:15.725Z,56.90
2018-06-21T00:32:19.942Z,57.21
2018-06-21T00:33:24.506Z,56.67
2018-06-21T00:34:29.167Z,57.29
2018-06-21T00:35:33.542Z,56.73
2018-06-21T00:36:38.036Z,57.49
2018-06-21T00:37:42.339Z,57.68
2018-06-21T00:38:46.638Z,57.38
2018-06-21T00:39:50.900Z,56.95
2018-06-21T00:40:55.161Z,57.25
2018-06-21T00:41:59.715Z,57.02
2018-06-21T00:43:04.214Z,57.50
2018-06-21T00:44:08.554Z,57.57
2018-06-21T00:45:13.074Z,57.92
2018-06-21T00:46:17.619Z,57.83
2018-06-21T00:47:22.060Z,57.95
2018-06-21T00:48:26.361Z,58.08
2018-06-21T00:49:30.544Z,58.01
2018-06-21T00:50:34.858Z,57.72
2018-06-21T00:51:39.163Z,57.61
2018-06-21T00:52:43.642Z,57.88
2018-06-21T00:53:47.914Z,57.83
2018-06-21T00:54:52.098Z,58.28
2018-06-21T00:56:17.935Z,58.58
2018-06-21T00:57:22.364Z,58.40
2018-06-21T00:58:26.526Z,58.68
2018-06-21T00:59:30.989Z,58.72
2018-06-21T01:00:36.194Z,58.13
2018-06-21T01:01:40.527Z,58.38
2018-06-21T01:02:45.349Z,58.98
2018-06-21T01:03:49.734Z,58.33
2018-06-21T01:04:53.988Z,58.81
2018-06-21T01:05:58.129Z,59.21
2018-06-21T01:07:02.439Z,59.25
2018-06-21T01:08:06.734Z,58.74
2018-06-21T01:09:10.952Z,59.34
2018-06-21T01:10:15.385Z,59.00
2018-06-21T01:11:20.082Z,58.97
2018-06-21T01:12:24.798Z,59.20
2018-06-21T01:13:29.102Z,59.58
2018-06-21T01:14:33.754Z,59.64
2018-06-21T01:15:38.367Z,59.39
2018-06-21T01:16:42.905Z,59.24
2018-06-21T01:17:47.290Z,59.01
2018-06-21T01:18:51.667Z,59.18
2018-06-21T01:19:55.860Z,59.36
2018-06-21T01:21:00.190Z,59.16
2018-06-21T01:22:04.417Z,59.67
2018-06-21T01:23:08.794Z,59.47
2018-06-21T01:24:13.032Z,59.94
2018-06-21T01:25:17.422Z,59.46
2018-06-21T01:26:21.957Z,60.39
2018-06-21T01:27:26.179Z,60.42
2018-06-21T01:28:30.407Z,59.94
2018-06-21T01:29:34.705Z,60.62
2018-06-21T01:30:39.218Z,60.67
2018-06-21T01:31:43.599Z,60.44
2018-06-21T01:32:48.010Z,60.44
2018-06-21T01:33:52.404Z,60.94
2018-06-21T01:34:56.994Z,60.97
2018-06-21T01:36:01.329Z,60.94
2018-06-21T01:37:05.883Z,61.55
2018-06-21T01:38:10.110Z,61.31
2018-06-21T01:39:14.555Z,61.37
2018-06-21T01:40:18.820Z,61.79
2018-06-21T01:41:23.099Z,61.42
2018-06-21T01:42:27.354Z,61.48
2018-06-21T01:43:31.777Z,61.22
2018-06-21T01:44:36.238Z,61.98
2018-06-21T01:45:40.580Z,61.78
2018-06-21T01:46:44.971Z,61.59
2018-06-21T01:47:49.256Z,61.86
2018-06-21T01:48:53.436Z,62.07
2018-06-21T01:49:57.692Z,62.62
2018-06-21T01:51:02.023Z,62.30
2018-06-21T01:52:06.760Z,62.02
2018-06-21T01:53:11.114Z,62.09
2018-06-21T01:54:15.342Z,62.49
2018-06-21T01:55:19.786Z,62.99
2018-06-21T01:56:24.418Z,62.76
2018-06-21T01:57:28.619Z,62.73
2018-06-21T01:58:32.771Z,63.15
2018-06-21T01:59:37.016Z,62.70
2018-06-21T02:00:41.337Z,62.48
2018-06-21T02:01:45.778Z,62.78
2018-06-21T02:02:50.738Z,62.99
2018-06-21T02:03:55.202Z,62.59
2018-06-21T02:04:59.434Z,62.67
2018-06-21T02:06:03.780Z,63.25
2018-06-21T02:07:08.555Z,63.42
2018-06-21T02:08:12.897Z,63.40
2018-06-21T02:09:17.102Z,63.43
2018-06-21T02:10:21.335Z,63.49
2018-06-21T02:11:25.733Z,63.17
2018-06-21T02:12:30.255Z,62.99
2018-06-21T02:13:34.531Z,63.34
2018-06-21T02:14:38.798Z,63.16
2018-06-21T02:15:43.141Z,63.77
2018-06-21T02:16:47.387Z,63.13
2018-06-21T02:17:51.616Z,63.23
2018-06-21T02:18:55.887Z,63.15
2018-06-21T02:20:00.111Z,63.08
2018-06-21T02:21:04.730Z,63.43
2018-06-21T02:22:09.203Z,63.98
2018-06-21T02:23:13.440Z,63.68
2018-06-21T02:24:17.810Z,63.75
2018-06-21T02:25:22.016Z,64.16
2018-06-21T02:26:26.291Z,63.24
2018-06-21T02:27:30.711Z,63.30
2018-06-21T02:28:34.899Z,63.80
2018-06-21T02:29:39.336Z,63.58
2018-06-21T02:30:43.730Z,63.18
2018-06-21T02:31:48.042Z,63.13
2018-06-21T02:32:52.289Z,63.41
2018-06-21T02:33:56.720Z,63.83
2018-06-21T02:35:00.927Z,63.62
2018-06-21T02:36:05.192Z,63.44
2018-06-21T02:37:09.381Z,63.69
2018-06-21T02:38:13.692Z,62.97
2018-06-21T02:39:18.285Z,63.64
2018-06-21T02:40:23.822Z,63.42
2018-06-21T02:41:28.093Z,63.03
2018-06-21T02:42:32.367Z,63.50
2018-06-21T02:43:36.633Z,63.34
2018-06-21T02:44:40.939Z,63.65
2018-06-21T02:45:45.181Z,63.16
2018-06-21T02:46:49.415Z,63.47
2018-06-21T02:47:53.620Z,63.70
2018-06-21T02:48:57.860Z,63.37
2018-06-21T02:50:02.464Z,63.65
2018-06-21T02:51:07.185Z,63.44
2018-06-21T02:52:11.558Z,63.25
2018-06-21T02:53:15.838Z,63.56
2018-06-21T02:54:20.388Z,63.52
2018-06-21T02:55:24.728Z,63.33
2018-06-21T02:56:29.354Z,63.37
2018-06-21T02:57:33.756Z,62.79
2018-06-21T02:58:38.196Z,63.42
2018-06-21T02:59:42.504Z,63.51
2018-06-21T03:00:46.786Z,62.85
2018-06-21T03:01:51.295Z,62.76
2018-06-21T03:02:56.247Z,63.54
2018-06-21T03:04:00.825Z,63.51
2018-06-21T03:05:05.030Z,63.33
2018-06-21T03:06:09.314Z,63.05
2018-06-21T03:07:13.863Z,62.84
2018-06-21T03:08:18.527Z,63.03
2018-06-21T03:09:22.775Z,63.44
2018-06-21T03:10:27.144Z,63.20
2018-06-21T03:11:31.507Z,63.24
2018-06-21T03:12:36.348Z,63.07
2018-06-21T03:13:40.796Z,63.27
2018-06-21T03:14:45.053Z,63.06
2018-06-21T03:15:49.388Z,63.13
2018-06-21T03:16:53.682Z,63.42
2018-06-21T03:17:57.925Z,63.93
2018-06-21T03:19:02.078Z,63.51
2018-06-21T03:20:06.446Z,63.25
2018-06-21T03:21:10.791Z,64.02
2018-06-21T03:22:15.071Z,63.44
2018-06-21T03:23:19.357Z,64.07
2018-06-21T03:24:23.598Z,63.32
2018-06-21T03:25:27.891Z,63.85
2018-06-21T03:26:32.181Z,64.10
2018-06-21T03:27:36.439Z,64.16
2018-06-21T03:28:40.735Z,64.58
2018-06-21T03:29:44.975Z,64.25
2018-06-21T03:30:49.351Z,64.67
2018-06-21T03:31:53.707Z,64.37
2018-06-21T03:32:57.960Z,64.75
2018-06-21T03:34:02.247Z,64.74
2018-06-21T03:35:06.521Z,64.60
2018-06-21T03:36:10.790Z,64.82
2018-06-21T03:37:15.140Z,64.61
2018-06-21T03:38:19.577Z,64.94
2018-06-21T03:39:23.980Z,65.18
2018-06-21T03:40:28.331Z,64.95
2018-06-21T03:41:32.798Z,65.19
2018-06-21T03:42:37.070Z,65.23
2018-06-21T03:43:41.540Z,64.76
2018-06-21T03:44:45.967Z,65.15
2018-06-21T03:45:50.547Z,65.15
2018-06-21T03:46:54.840Z,65.36
2018-06-21T03:47:59.126Z,65.32
2018-06-21T03:49:03.398Z,65.06
2018-06-21T03:50:07.690Z,64.84
2018-06-21T03:51:12.013Z,64.53
2018-06-21T03:52:16.458Z,64.96
2018-06-21T03:53:20.947Z,64.80
2018-06-21T03:54:25.369Z,64.54
2018-06-21T03:55:29.638Z,64.79
2018-06-21T03:56:34.163Z,64.43
2018-06-21T03:57:38.660Z,64.59
2018-06-21T03:58:42.979Z,65.04
2018-06-21T03:59:47.315Z,64.73
2018-06-21T04:00:51.849Z,64.66
2018-06-21T04:01:56.715Z,64.28
2018-06-21T04:03:01.051Z,64.28
2018-06-21T04:04:05.261Z,64.49
2018-06-21T04:05:09.447Z,64.32
2018-06-21T04:06:13.747Z,65.03
2018-06-21T04:07:18.054Z,64.78
2018-06-21T04:08:22.353Z,64.73
2018-06-21T04:09:27.154Z,64.94
2018-06-21T04:10:31.335Z,64.84
2018-06-21T04:11:35.561Z,64.08
2018-06-21T04:12:40.011Z,64.19
2018-06-21T04:13:44.231Z,64.75
2018-06-21T04:14:48.463Z,64.38
2018-06-21T04:15:52.723Z,64.49
2018-06-21T04:16:57.114Z,64.39
2018-06-21T04:18:01.417Z,64.44
2018-06-21T04:19:05.739Z,63.90
2018-06-21T04:20:10.315Z,63.99
2018-06-21T04:21:14.538Z,63.84
2018-06-21T04:22:18.870Z,64.24
2018-06-21T04:23:23.096Z,64.53
2018-06-21T04:24:27.477Z,64.09
2018-06-21T04:25:31.902Z,64.56
2018-06-21T04:26:36.338Z,63.81
2018-06-21T04:27:40.652Z,64.13
2018-06-21T04:28:44.999Z,63.95
2018-06-21T04:29:49.263Z,63.99
2018-06-21T04:30:53.567Z,64.34
2018-06-21T04:31:57.816Z,63.99
2018-06-21T04:33:02.904Z,63.54
2018-06-21T04:34:07.190Z,63.95
2018-06-21T04:35:11.354Z,63.54
2018-06-21T04:36:15.618Z,63.50
2018-06-21T04:37:20.091Z,63.84
2018-06-21T04:38:24.664Z,63.61
2018-06-21T04:39:29.018Z,63.24
2018-06-21T04:40:33.228Z,63.48
2018-06-21T04:41:37.602Z,63.99
2018-06-21T04:42:41.872Z,63.97
2018-06-21T04:43:46.221Z,63.98
2018-06-21T04:44:50.499Z,63.71
2018-06-21T04:45:54.795Z,63.64
2018-06-21T04:46:58.988Z,63.42
2018-06-21T04:48:03.184Z,63.54
2018-06-21T04:49:07.323Z,63.67
2018-06-21T04:50:11.748Z,63.90
2018-06-21T04:51:16.191Z,63.82
2018-06-21T04:52:20.427Z,63.17
2018-06-21T04:53:24.659Z,63.60
2018-06-21T04:54:28.901Z,63.22
2018-06-21T04:55:33.464Z,63.98
2018-06-21T04:56:37.720Z,63.96
2018-06-21T04:57:41.948Z,63.94
2018-06-21T04:58:46.172Z,63.56
2018-06-21T04:59:50.449Z,63.35
2018-06-21T05:00:54.803Z,64.08
2018-06-21T05:01:59.018Z,63.89
2018-06-21T05:03:03.822Z,64.01
2018-06-21T05:04:08.023Z,63.89
2018-06-21T05:05:12.300Z,64.48
2018-06-21T05:06:16.511Z,64.01
2018-06-21T05:07:20.942Z,64.43
2018-06-21T05:08:25.139Z,64.54
2018-06-21T05:09:29.479Z,64.59
2018-06-21T05:10:33.704Z,64.54
2018-06-21T05:11:38.045Z,63.97
2018-06-21T05:12:42.258Z,64.71
2018-06-21T05:13:46.650Z,64.49
2018-06-21T05:14:52.393Z,64.73
2018-06-21T05:15:57.055Z,64.13
2018-06-21T05:17:01.520Z,64.13
2018-06-21T05:18:05.852Z,64.70
2018-06-21T05:19:10.306Z,64.78
2018-06-21T05:20:14.560Z,64.90
2018-06-21T05:21:18.772Z,64.44
2018-06-21T05:22:22.986Z,64.35
2018-06-21T05:23:27.397Z,65.22
2018-06-21T05:24:31.792Z,64.49
2018-06-21T05:25:35.959Z,64.99
2018-06-21T05:26:40.371Z,64.50
2018-06-21T05:27:44.604Z,65.39
2018-06-21T05:28:48.815Z,65.41
2018-06-21T05:29:53.273Z,65.17
2018-06-21T05:30:57.546Z,65.85
2018-06-21T05:32:01.885Z,65.73
2018-06-21T05:33:06.054Z,66.06
2018-06-21T05:34:10.323Z,65.79
2018-06-21T05:35:14.914Z,65.63
2018-06-21T05:36:19.162Z,65.68
2018-06-21T05:37:23.451Z,66.22
2018-06-21T05:38:27.834Z,65.75
2018-06-21T05:39:32.114Z,65.77
2018-06-21T05:40:37.628Z,65.68
2018-06-21T05:41:41.947Z,66.27
2018-06-21T05:42:46.229Z,65.99
2018-06-21T05:43:50.459Z,65.93
2018-06-21T05:44:54.810Z,66.48
2018-06-21T05:45:59.091Z,65.95
2018-06-21T05:47:03.350Z,66.17
2018-06-21T05:48:07.696Z,66.45
2018-06-21T05:49:11.955Z,66.45
2018-06-21T05:50:16.332Z,67.15
2018-06-21T05:51:20.555Z,66.68
2018-06-21T05:52:25.097Z,67.23
2018-06-21T05:53:29.295Z,67.93
2018-06-21T05:54:33.751Z,68.18
2018-06-21T05:55:38.266Z,68.14
2018-06-21T05:56:43.391Z,68.51
2018-06-21T05:57:47.524Z,68.13
2018-06-21T05:58:51.876Z,68.34
2018-06-21T05:59:56.087Z,68.91
2018-06-21T06:01:00.598Z,69.00
2018-06-21T06:02:04.940Z,69.19
2018-06-21T06:03:09.554Z,69.43
2018-06-21T06:04:13.802Z,69.98
2018-06-21T06:05:18.087Z,69.62
2018-06-21T06:06:22.385Z,70.25
2018-06-21T06:07:26.859Z,70.34
2018-06-21T06:08:31.180Z,70.23
2018-06-21T06:09:35.358Z,70.22
2018-06-21T06:10:39.875Z,70.73
2018-06-21T06:11:44.442Z,70.76
2018-06-21T06:12:48.656Z,71.28
2018-06-21T06:13:52.957Z,70.88
2018-06-21T06:14:58.334Z,71.28
2018-06-21T06:16:02.683Z,71.04
2018-06-21T06:17:06.866Z,71.31
2018-06-21T06:18:11.070Z,70.72
2018-06-21T06:19:15.278Z,71.02
2018-06-21T06:20:19.823Z,71.58
2018-06-21T06:21:24.337Z,71.38
2018-06-21T06:22:28.586Z,71.24
2018-06-21T06:23:32.851Z,70.96
2018-06-21T06:24:37.094Z,71.13
2018-06-21T06:25:41.222Z,71.73
2018-06-21T06:26:45.418Z,71.24
2018-06-21T06:27:49.754Z,71.47
2018-06-21T06:28:54.242Z,70.87
2018-06-21T06:29:58.374Z,70.96
2018-06-21T06:31:02.837Z,70.91
2018-06-21T06:32:07.218Z,70.97
2018-06-21T06:33:11.402Z,70.94
2018-06-21T06:34:15.636Z,70.41
2018-06-21T06:35:19.954Z,70.02
2018-06-21T06:36:24.275Z,70.21
2018-06-21T06:37:28.681Z,70.48
2018-06-21T06:38:32.911Z,70.35
2018-06-21T06:39:37.281Z,69.84
2018-06-21T06:40:41.408Z,70.33
2018-06-21T06:41:47.065Z,70.05
2018-06-21T06:42:51.249Z,69.60
2018-06-21T06:43:55.503Z,69.92
2018-06-21T06:44:59.805Z,70.01
2018-06-21T06:46:04.080Z,69.09
2018-06-21T06:47:08.377Z,69.46
2018-06-21T06:48:17.285Z,69.12
2018-06-21T06:49:24.875Z,69.12
2018-06-21T06:50:35.589Z,69.28
2018-06-21T06:51:42.510Z,68.21
2018-06-21T06:52:50.799Z,68.39
2018-06-21T06:53:57.456Z,67.69
2018-06-21T06:55:03.579Z,67.70
2018-06-21T06:56:08.429Z,67.65
2018-06-21T06:57:13.104Z,67.52
2018-06-21T06:58:17.523Z,68.09
2018-06-21T06:59:22.021Z,67.55
2018-06-21T07:00:26.388Z,67.47
2018-06-21T07:01:30.965Z,67.14
2018-06-21T07:02:35.283Z,67.09
2018-06-21T07:03:39.839Z,67.27
2018-06-21T07:04:44.130Z,67.02
2018-06-21T07:05:48.453Z,67.48
2018-06-21T07:06:53.345Z,67.32
2018-06-21T07:07:57.929Z,67.23
2018-06-21T07:09:02.386Z,66.54
2018-06-21T07:10:06.714Z,66.61
2018-06-21T07:11:10.974Z,67.19
2018-06-21T07:12:15.323Z,66.82
2018-06-21T07:13:19.598Z,66.34
2018-06-21T07:14:23.862Z,66.79
2018-06-21T07:15:28.127Z,66.21
2018-06-21T07:16:32.372Z,66.41
2018-06-21T07:17:36.796Z,65.50
2018-06-21T07:18:41.657Z,65.02
2018-06-21T07:19:46.023Z,65.73
2018-06-21T07:20:50.370Z,65.23
2018-06-21T07:21:54.702Z,64.61
2018-06-21T07:22:58.908Z,64.91
2018-06-21T07:24:03.375Z,64.36
2018-06-21T07:25:07.819Z,64.27
2018-06-21T07:26:12.179Z,64.03
2018-06-21T07:27:16.356Z,63.87
2018-06-21T07:28:20.629Z,63.19
2018-06-21T07:29:25.113Z,63.34
2018-06-21T07:30:29.807Z,63.29
2018-06-21T07:31:35.466Z,62.51
2018-06-21T07:32:39.806Z,62.61
2018-06-21T07:33:44.659Z,62.11
2018-06-21T07:34:48.835Z,62.73
2018-06-21T07:35:53.115Z,62.43
2018-06-21T07:36:57.487Z,61.54
2018-06-21T07:38:02.384Z,62.09
2018-06-21T07:39:08.885Z,61.58
2018-06-21T07:40:13.291Z,62.01
2018-06-21T07:41:17.912Z,61.14
2018-06-21T07:42:22.159Z,61.41
2018-06-21T07:43:26.468Z,61.87
2018-06-21T07:44:30.677Z,61.41
2018-06-21T07:45:34.970Z,62.51
2018-06-21T07:46:39.255Z,62.93
2018-06-21T07:47:43.720Z,63.38
2018-06-21T07:48:47.924Z,62.55
2018-06-21T07:49:52.167Z,63.12
2018-06-21T07:50:56.628Z,62.63
2018-06-21T07:52:01.421Z,62.76
2018-06-21T07:53:05.819Z,62.77
2018-06-21T07:54:10.064Z,62.98
2018-06-21T07:55:14.355Z,61.68
2018-06-21T07:56:19.017Z,61.73
2018-06-21T07:57:23.288Z,61.15
2018-06-21T07:58:27.522Z,61.05
2018-06-21T07:59:31.715Z,60.60
2018-06-21T08:00:36.404Z,60.06
2018-06-21T08:01:40.634Z,60.19
2018-06-21T08:02:44.858Z,60.13
2018-06-21T08:03:49.551Z,59.56
2018-06-21T08:04:53.826Z,58.81
2018-06-21T08:05:58.134Z,58.56
2018-06-21T08:07:02.621Z,58.26
2018-06-21T08:08:07.010Z,57.35
2018-06-21T08:09:12.644Z,57.32
2018-06-21T08:10:17.234Z,57.28
2018-06-21T08:11:21.485Z,57.23
2018-06-21T08:12:25.698Z,56.89
2018-06-21T08:13:29.932Z,56.74
2018-06-21T08:14:34.180Z,56.61
2018-06-21T08:15:38.513Z,56.38
2018-06-21T08:16:44.950Z,55.58
2018-06-21T08:17:49.349Z,55.39
2018-06-21T08:18:53.608Z,55.39
2018-06-21T08:19:57.895Z,55.56
2018-06-21T08:21:02.161Z,55.15
2018-06-21T08:22:06.828Z,55.41
2018-06-21T08:23:11.154Z,55.71
2018-06-21T08:24:15.363Z,55.50
2018-06-21T08:25:19.630Z,55.27
2018-06-21T08:26:24.015Z,55.22
2018-06-21T08:27:28.204Z,54.96
2018-06-21T08:28:32.597Z,55.26
2018-06-21T08:29:36.842Z,55.71
2018-06-21T08:30:41.248Z,54.91
2018-06-21T08:31:45.939Z,55.07
2018-06-21T08:32:50.142Z,55.03
2018-06-21T08:33:54.557Z,54.67
2018-06-21T08:34:59.101Z,54.94
2018-06-21T08:36:03.804Z,54.96
2018-06-21T08:37:08.370Z,54.26
2018-06-21T08:38:13.081Z,54.50
2018-06-21T08:39:17.538Z,54.31
2018-06-21T08:40:21.867Z,53.77
2018-06-21T08:41:26.735Z,53.54
2018-06-21T08:42:30.996Z,52.67
2018-06-21T08:43:35.461Z,52.72
2018-06-21T08:44:39.656Z,51.87
2018-06-21T08:45:44.049Z,52.16
2018-06-21T08:46:48.471Z,51.87
2018-06-21T08:47:52.696Z,51.02
2018-06-21T08:48:56.907Z,51.72
2018-06-21T08:50:01.158Z,51.32
2018-06-21T08:51:05.553Z,50.51
2018-06-21T08:52:09.764Z,50.92
2018-06-21T08:53:14.199Z,50.28
2018-06-21T08:54:18.440Z,50.76
2018-06-21T08:55:22.802Z,50.41
2018-06-21T08:56:27.361Z,50.95
2018-06-21T08:57:32.054Z,50.85
2018-06-21T08:58:36.249Z,49.98
2018-06-21T08:59:40.454Z,49.85
2018-06-21T09:00:44.841Z,50.50
2018-06-21T09:01:49.073Z,50.41
2018-06-21T09:02:53.489Z,50.13
2018-06-21T09:03:58.336Z,50.54
2018-06-21T09:05:02.900Z,49.88
2018-06-21T09:06:07.163Z,50.34
2018-06-21T09:07:11.540Z,50.44
2018-06-21T09:08:15.798Z,50.39
2018-06-21T09:09:20.279Z,50.10
2018-06-21T09:10:24.558Z,50.40
2018-06-21T09:11:28.825Z,50.83
2018-06-21T09:12:36.552Z,50.70
2018-06-21T09:13:40.801Z,49.90
2018-06-21T09:14:45.294Z,49.63
2018-06-21T09:15:49.682Z,50.06
2018-06-21T09:16:53.904Z,49.91
2018-06-21T09:17:58.164Z,49.46
2018-06-21T09:19:02.538Z,49.67
2018-06-21T09:20:06.805Z,49.42
2018-06-21T09:21:11.101Z,49.50
2018-06-21T09:22:15.241Z,48.83
2018-06-21T09:23:19.623Z,49.04
2018-06-21T09:24:23.992Z,49.58
2018-06-21T09:25:28.359Z,48.24
2018-06-21T09:26:32.838Z,48.82
2018-06-21T09:27:37.188Z,48.78
2018-06-21T09:28:41.461Z,48.13
2018-06-21T09:29:45.688Z,48.31
2018-06-21T09:30:50.175Z,48.56
2018-06-21T09:31:54.372Z,48.44
2018-06-21T09:32:58.579Z,48.29
2018-06-21T09:34:02.759Z,48.31
2018-06-21T09:35:07.051Z,47.80
2018-06-21T09:36:11.276Z,48.23
2018-06-21T09:37:15.582Z,48.87
2018-06-21T09:38:25.093Z,48.37
2018-06-21T09:39:34.840Z,48.20
2018-06-21T09:40:44.282Z,48.53
2018-06-21T09:41:53.821Z,47.94
2018-06-21T09:43:03.294Z,47.66
2018-06-21T09:44:12.755Z,48.27
2018-06-21T09:45:22.047Z,47.45
2018-06-21T09:46:34.490Z,47.94
2018-06-21T09:47:41.650Z,47.75
2018-06-21T09:48:51.136Z,47.86
2018-06-21T09:49:55.507Z,47.47
2018-06-21T09:51:00.455Z,47.78
2018-06-21T09:52:05.666Z,47.64
2018-06-21T09:53:10.000Z,47.69
2018-06-21T09:54:14.463Z,47.85
2018-06-21T09:55:19.038Z,48.04
2018-06-21T09:56:23.183Z,47.97
2018-06-21T09:57:27.486Z,47.78
2018-06-21T09:58:32.883Z,47.01
2018-06-21T09:59:37.380Z,47.44
2018-06-21T10:00:46.951Z,47.27
2018-06-21T10:01:51.159Z,47.21
2018-06-21T10:02:55.528Z,46.75
2018-06-21T10:03:59.875Z,47.31
2018-06-21T10:05:04.363Z,47.21
2018-06-21T10:06:08.567Z,47.24
2018-06-21T10:07:12.819Z,46.73
2018-06-21T10:08:17.023Z,46.97
2018-06-21T10:09:21.210Z,47.35
2018-06-21T10:10:25.376Z,46.75
2018-06-21T10:11:29.713Z,46.50
2018-06-21T10:12:34.246Z,46.53
2018-06-21T10:13:38.493Z,44.94
2018-06-21T10:14:42.814Z,44.29
2018-06-21T10:15:47.105Z,44.30
2018-06-21T10:16:51.727Z,43.75
2018-06-21T10:17:59.004Z,43.66
2018-06-21T10:19:03.416Z,42.37
2018-06-21T10:20:07.674Z,42.29
2018-06-21T10:21:12.227Z,42.74
2018-06-21T10:22:16.490Z,42.55
2018-06-21T10:23:21.001Z,42.99
2018-06-21T10:24:25.623Z,43.26
2018-06-21T10:25:29.946Z,42.94
2018-06-21T10:26:34.404Z,43.26
2018-06-21T10:27:38.608Z,43.23
2018-06-21T10:28:42.954Z,43.63
2018-06-21T10:29:47.131Z,43.69
2018-06-21T10:30:51.347Z,43.95
2018-06-21T10:31:55.606Z,43.02
2018-06-21T10:32:59.844Z,43.11
2018-06-21T10:34:04.191Z,42.63
2018-06-21T10:35:08.868Z,42.18
2018-06-21T10:36:13.044Z,42.17
2018-06-21T10:37:17.267Z,41.55
2018-06-21T10:38:21.539Z,41.43
2018-06-21T10:39:25.924Z,41.02
2018-06-21T10:40:30.110Z,41.48
2018-06-21T10:41:34.324Z,40.94
2018-06-21T10:42:38.591Z,41.46
2018-06-21T10:43:43.033Z,40.66
2018-06-21T10:44:47.198Z,39.90
2018-06-21T10:45:51.505Z,39.34
2018-06-21T10:46:55.873Z,38.62
2018-06-21T10:48:00.072Z,38.62
2018-06-21T10:49:04.293Z,38.25
2018-06-21T10:50:08.483Z,39.01
2018-06-21T10:51:12.680Z,38.64
2018-06-21T10:52:17.025Z,38.41
2018-06-21T10:53:21.275Z,38.83
2018-06-21T10:54:25.773Z,38.97
2018-06-21T10:55:30.358Z,38.70
2018-06-21T10:56:34.592Z,38.06
2018-06-21T10:57:38.812Z,38.22
2018-06-21T10:58:43.191Z,37.71
2018-06-21T10:59:47.431Z,37.47
2018-06-21T11:00:51.658Z,37.86
2018-06-21T11:01:56.200Z,38.34
2018-06-21T11:03:00.422Z,38.52
2018-06-21T11:04:04.998Z,37.75
2018-06-21T11:05:09.355Z,36.63
2018-06-21T11:06:13.683Z,35.58
2018-06-21T11:07:17.850Z,35.60
2018-06-21T11:08:22.199Z,35.78
2018-06-21T11:09:26.507Z,35.42
2018-06-21T11:10:30.766Z,35.40
2018-06-21T11:11:35.032Z,35.96
2018-06-21T11:12:39.287Z,36.33
2018-06-21T11:13:43.562Z,36.22
2018-06-21T11:14:48.097Z,35.55
2018-06-21T11:15:52.322Z,35.84
2018-06-21T11:16:56.885Z,35.61
2018-06-21T11:18:01.203Z,35.13
2018-06-21T11:19:05.482Z,34.71
2018-06-21T11:20:09.690Z,35.16
2018-06-21T11:21:13.876Z,34.93
2018-06-21T11:22:18.079Z,34.26
2018-06-21T11:23:22.253Z,34.86
2018-06-21T11:24:26.482Z,35.12
2018-06-21T11:25:30.821Z,35.19
2018-06-21T11:26:35.410Z,35.18
2018-06-21T11:27:39.715Z,34.91
2018-06-21T11:28:44.035Z,34.96
2018-06-21T11:29:48.331Z,35.26
2018-06-21T11:30:52.497Z,35.29
2018-06-21T11:31:56.966Z,35.37
2018-06-21T11:33:01.206Z,34.93
2018-06-21T11:34:05.533Z,34.28
2018-06-21T11:35:09.832Z,34.47
2018-06-21T11:36:14.098Z,33.99
2018-06-21T11:37:18.311Z,34.58
2018-06-21T11:38:22.587Z,33.92
2018-06-21T11:39:27.099Z,34.41
2018-06-21T11:40:31.486Z,34.91
2018-06-21T11:41:35.663Z,34.73
2018-06-21T11:42:39.871Z,34.68
2018-06-21T11:43:44.090Z,34.31
2018-06-21T11:44:48.256Z,33.26
2018-06-21T11:45:52.511Z,32.95
2018-06-21T11:46:56.740Z,33.17
2018-06-21T11:48:01.337Z,32.06
2018-06-21T11:49:05.933Z,32.74
2018-06-21T11:50:10.209Z,32.52
2018-06-21T11:51:14.531Z,32.21
2018-06-21T11:52:18.845Z,32.04
2018-06-21T11:53:22.997Z,32.87
2018-06-21T11:54:27.521Z,32.73
2018-06-21T11:55:31.828Z,32.78
2018-06-21T11:56:36.135Z,33.12
2018-06-21T11:57:40.433Z,33.15
2018-06-21T11:58:44.830Z,34.08
2018-06-21T11:59:49.007Z,33.64
2018-06-21T12:00:53.447Z,33.84
2018-06-21T12:01:57.712Z,34.33
2018-06-21T12:03:01.957Z,33.41
2018-06-21T12:04:06.422Z,33.54
2018-06-21T12:05:10.544Z,33.98
2018-06-21T12:06:14.780Z,34.36
2018-06-21T12:07:19.069Z,34.09
2018-06-21T12:08:23.307Z,33.92
2018-06-21T12:09:27.465Z,34.33
2018-06-21T12:10:31.872Z,33.93
2018-06-21T12:11:36.289Z,34.29
2018-06-21T12:12:40.586Z,34.44
2018-06-21T12:13:44.755Z,34.03
2018-06-21T12:14:48.982Z,34.28
2018-06-21T12:15:53.220Z,34.68
2018-06-21T12:16:57.408Z,34.31
2018-06-21T12:18:01.636Z,33.67
2018-06-21T12:19:05.994Z,33.40
2018-06-21T12:20:10.250Z,34.28
2018-06-21T12:21:14.574Z,33.67
2018-06-21T12:22:18.839Z,34.07
2018-06-21T12:23:23.171Z,34.03
2018-06-21T12:24:28.027Z,33.45
2018-06-21T12:25:33.276Z,33.16
2018-06-21T12:26:37.578Z,32.84
2018-06-21T12:27:41.807Z,33.48
2018-06-21T12:28:46.031Z,32.89
2018-06-21T12:29:50.532Z,33.01
2018-06-21T12:30:54.784Z,33.27
2018-06-21T12:31:59.875Z,33.42
2018-06-21T12:33:04.099Z,33.93
2018-06-21T12:34:08.435Z,33.57
2018-06-21T12:35:12.822Z,34.11
2018-06-21T12:36:17.110Z,33.41
2018-06-21T12:37:21.390Z,34.03
2018-06-21T12:38:25.618Z,33.67
2018-06-21T12:39:29.757Z,33.11
2018-06-21T12:40:34.084Z,32.42
2018-06-21T12:41:38.346Z,32.45
2018-06-21T12:42:42.578Z,32.01
2018-06-21T12:43:46.830Z,31.74
2018-06-21T12:44:51.022Z,31.93
2018-06-21T12:45:55.281Z,31.70
2018-06-21T12:46:59.434Z,32.08
2018-06-21T12:48:03.677Z,31.80
2018-06-21T12:49:08.062Z,32.36
2018-06-21T12:50:12.599Z,31.58
2018-06-21T12:51:16.810Z,32.03
2018-06-21T12:52:21.089Z,30.98
2018-06-21T12:53:25.303Z,31.45
2018-06-21T12:54:29.607Z,31.47
2018-06-21T12:55:33.968Z,31.69
2018-06-21T12:56:38.399Z,32.16
2018-06-21T12:57:42.746Z,32.56
2018-06-21T12:58:47.255Z,32.46
2018-06-21T12:59:51.467Z,32.81
2018-06-21T13:00:55.843Z,32.38
2018-06-21T13:02:00.158Z,32.21
2018-06-21T13:03:04.421Z,32.56
2018-06-21T13:04:09.185Z,32.26
2018-06-21T13:05:13.343Z,32.52
2018-06-21T13:06:17.671Z,32.10
2018-06-21T13:07:21.919Z,32.75
2018-06-21T13:08:37.545Z,32.94
2018-06-21T13:09:52.969Z,33.24
2018-06-21T13:11:08.333Z,32.55
2018-06-21T13:12:26.763Z,33.43
2018-06-21T13:13:31.115Z,32.87
2018-06-21T13:14:35.307Z,33.79
2018-06-21T13:15:40.129Z,33.21
2018-06-21T13:16:44.759Z,33.47
2018-06-21T13:17:49.253Z,33.28
2018-06-21T13:18:53.729Z,33.14
2018-06-21T13:19:58.798Z,33.46
2018-06-21T13:21:03.252Z,33.79
2018-06-21T13:22:07.554Z,34.06
2018-06-21T13:23:12.183Z,33.73
2018-06-21T13:24:16.612Z,33.83
2018-06-21T13:25:21.019Z,33.65
2018-06-21T13:26:25.574Z,33.46
2018-06-21T13:27:29.788Z,32.28
2018-06-21T13:28:34.043Z,32.54
2018-06-21T13:29:39.268Z,32.51
2018-06-21T13:30:43.574Z,33.10
2018-06-21T13:31:47.787Z,32.61
2018-06-21T13:32:52.078Z,33.09
2018-06-21T13:33:56.272Z,33.18
2018-06-21T13:35:00.515Z,32.80
2018-06-21T13:36:04.813Z,32.94
2018-06-21T13:37:09.536Z,32.47
2018-06-21T13:38:13.734Z,32.08
2018-06-21T13:39:18.200Z,32.46
2018-06-21T13:40:22.423Z,32.23
2018-06-21T13:41:26.753Z,32.74
2018-06-21T13:42:31.097Z,32.44
2018-06-21T13:43:35.336Z,32.32
2018-06-21T13:44:39.559Z,32.45
2018-06-21T13:45:43.921Z,32.99
2018-06-21T13:46:48.207Z,32.26
2018-06-21T13:47:52.731Z,32.75
2018-06-21T13:48:56.967Z,32.43
2018-06-21T13:50:01.108Z,33.12
2018-06-21T13:51:05.763Z,33.00
2018-06-21T13:52:10.058Z,32.78